createdAt,value
2023-01-13T00:01:26.775Z,8.80
2023-01-13T00:03:53.824Z,8.80
2023-01-13T00:06:23.200Z,8.80
2023-01-13T00:08:51.804Z,8.80
2023-01-13T00:11:20.539Z,8.80
2023-01-13T00:13:47.155Z,8.80
2023-01-13T00:16:18.130Z,8.80
2023-01-13T00:18:45.826Z,8.80
2023-01-13T00:21:18.245Z,8.80
2023-01-13T00:23:45.936Z,8.80
2023-01-13T00:26:19.091Z,8.80
2023-01-13T00:28:46.042Z,8.82
2023-01-13T00:31:17.320Z,8.90
2023-01-13T00:33:44.435Z,8.90
2023-01-13T00:36:13.779Z,8.90
2023-01-13T00:38:42.852Z,8.90
2023-01-13T00:41:23.035Z,8.90
2023-01-13T00:43:50.690Z,8.90
2023-01-13T00:46:21.179Z,8.90
2023-01-13T00:48:49.598Z,8.90
2023-01-13T00:51:20.613Z,8.90
2023-01-13T00:53:52.386Z,8.90
2023-01-13T00:56:38.524Z,8.90
2023-01-13T00:59:06.591Z,8.90
2023-01-13T01:01:33.490Z,8.90
2023-01-13T01:04:00.207Z,8.90
2023-01-13T01:06:28.264Z,8.90
2023-01-13T01:08:56.261Z,8.90
2023-01-13T01:11:29.604Z,8.90
2023-01-13T01:14:00.669Z,8.90
2023-01-13T01:16:29.408Z,8.90
2023-01-13T01:18:57.019Z,9.00
2023-01-13T01:21:26.575Z,9.00
2023-01-13T01:23:54.100Z,9.00
2023-01-13T01:26:24.467Z,9.00
2023-01-13T01:28:51.910Z,9.10
2023-01-13T01:31:28.785Z,9.10
2023-01-13T01:33:55.668Z,9.10
2023-01-13T01:36:24.062Z,9.12
2023-01-13T01:38:50.695Z,9.10
2023-01-13T01:41:25.073Z,9.20
2023-01-13T01:44:04.317Z,9.20
2023-01-13T01:46:39.176Z,9.20
2023-01-13T01:49:33.838Z,9.12
2023-01-13T01:52:12.409Z,9.10
2023-01-13T01:54:49.250Z,9.10
2023-01-13T01:57:23.933Z,9.10
2023-01-13T01:59:51.841Z,9.10
2023-01-13T02:02:18.653Z,9.10
2023-01-13T02:04:51.601Z,9.10
2023-01-13T02:07:24.093Z,9.10
2023-01-13T02:09:53.285Z,9.14
2023-01-13T02:12:29.349Z,9.20
2023-01-13T02:15:08.041Z,9.16
2023-01-13T02:18:02.571Z,9.12
2023-01-13T02:20:48.738Z,9.16
2023-01-13T02:24:14.879Z,9.20
2023-01-13T02:26:44.021Z,9.20
2023-01-13T02:30:04.623Z,9.20
2023-01-13T02:32:42.714Z,9.20
2023-01-13T02:35:28.651Z,9.20
2023-01-13T02:37:57.760Z,9.20
2023-01-13T02:40:40.925Z,9.22
2023-01-13T02:43:55.632Z,9.22
2023-01-13T02:46:33.213Z,9.30
2023-01-13T02:49:05.808Z,9.30
2023-01-13T02:51:33.284Z,9.30
2023-01-13T02:54:11.233Z,9.30
2023-01-13T02:56:43.080Z,9.30
2023-01-13T02:59:10.800Z,9.30
2023-01-13T03:01:37.998Z,9.40
2023-01-13T03:04:32.172Z,9.40
2023-01-13T03:07:15.368Z,9.40
2023-01-13T03:09:51.960Z,9.40
2023-01-13T03:13:01.150Z,9.40
2023-01-13T03:16:01.372Z,9.40
2023-01-13T03:19:30.598Z,9.40
2023-01-13T03:22:25.905Z,9.40
2023-01-13T03:25:14.297Z,9.40
2023-01-13T03:27:59.560Z,9.40
2023-01-13T03:31:00.008Z,9.46
2023-01-13T03:33:37.497Z,9.50
2023-01-13T03:36:09.606Z,9.50
2023-01-13T03:38:53.950Z,9.50
2023-01-13T03:41:28.999Z,9.50
2023-01-13T03:44:23.282Z,9.50
2023-01-13T03:47:41.587Z,9.60
2023-01-13T03:50:10.943Z,9.60
2023-01-13T03:52:44.900Z,9.60
2023-01-13T03:55:19.382Z,9.60
2023-01-13T03:58:16.292Z,9.60
2023-01-13T04:01:16.648Z,9.60
2023-01-13T04:03:57.931Z,9.60
2023-01-13T04:06:47.912Z,9.60
2023-01-13T04:09:44.900Z,9.60
2023-01-13T04:12:18.097Z,9.62
2023-01-13T04:14:46.312Z,9.62
2023-01-13T04:17:13.066Z,9.70
2023-01-13T04:19:39.677Z,9.68
2023-01-13T04:22:06.317Z,9.70
2023-01-13T04:24:32.959Z,9.70
2023-01-13T04:26:59.658Z,9.70
2023-01-13T04:29:26.716Z,9.80
2023-01-13T04:31:53.394Z,9.80
2023-01-13T04:34:22.307Z,9.80
2023-01-13T04:36:48.864Z,9.80
2023-01-13T04:39:15.484Z,9.82
2023-01-13T04:42:01.322Z,9.90
2023-01-13T04:44:31.458Z,9.90
2023-01-13T04:46:58.722Z,9.90
2023-01-13T04:49:25.377Z,9.90
2023-01-13T04:51:52.065Z,10.00
2023-01-13T04:54:18.739Z,10.00
2023-01-13T04:56:45.511Z,10.00
2023-01-13T04:59:14.156Z,10.06
2023-01-13T05:01:41.382Z,10.06
2023-01-13T05:04:08.756Z,10.10
2023-01-13T05:06:35.884Z,10.10
2023-01-13T05:09:02.505Z,10.10
2023-01-13T05:11:48.053Z,10.10
2023-01-13T05:14:33.036Z,10.18
2023-01-13T05:17:03.526Z,10.20
2023-01-13T05:19:36.508Z,10.20
2023-01-13T05:22:22.376Z,10.20
2023-01-13T05:25:08.027Z,10.20
2023-01-13T05:27:35.021Z,10.24
2023-01-13T05:30:01.709Z,10.30
2023-01-13T05:32:28.587Z,10.30
2023-01-13T05:34:56.277Z,10.30
2023-01-13T05:37:24.512Z,10.30
2023-01-13T05:40:10.706Z,10.30
2023-01-13T05:42:56.469Z,10.32
2023-01-13T05:45:24.323Z,10.38
2023-01-13T05:47:51.174Z,10.40
2023-01-13T05:50:18.335Z,10.40
2023-01-13T05:52:44.915Z,10.40
2023-01-13T05:55:12.281Z,10.40
2023-01-13T05:57:38.892Z,10.40
2023-01-13T06:00:06.375Z,10.40
2023-01-13T06:02:38.508Z,10.40
2023-01-13T06:05:05.406Z,10.40
2023-01-13T06:07:32.079Z,10.40
2023-01-13T06:09:58.784Z,10.40
2023-01-13T06:12:25.409Z,10.40
2023-01-13T06:14:52.036Z,10.40
2023-01-13T06:17:18.678Z,10.40
2023-01-13T06:19:45.261Z,10.42
2023-01-13T06:22:32.928Z,10.48
2023-01-13T06:24:59.933Z,10.48
2023-01-13T06:27:26.606Z,10.42
2023-01-13T06:29:53.312Z,10.42
2023-01-13T06:32:25.657Z,10.42
2023-01-13T06:35:03.710Z,10.48
2023-01-13T06:37:33.921Z,10.50
2023-01-13T06:40:04.382Z,10.50
2023-01-13T06:42:53.798Z,10.50
2023-01-13T06:45:22.862Z,10.48
2023-01-13T06:47:49.914Z,10.48
2023-01-13T06:50:18.646Z,10.46
2023-01-13T06:52:45.266Z,10.40
2023-01-13T06:55:12.119Z,10.40
2023-01-13T06:57:56.912Z,10.40
2023-01-13T07:00:25.350Z,10.40
2023-01-13T07:02:52.146Z,10.40
2023-01-13T07:05:20.266Z,10.40
2023-01-13T07:07:47.025Z,10.40
2023-01-13T07:10:22.390Z,10.40
2023-01-13T07:13:08.442Z,10.40
2023-01-13T07:15:35.529Z,10.40
2023-01-13T07:18:02.957Z,10.40
2023-01-13T07:20:30.603Z,10.40
2023-01-13T07:22:58.301Z,10.40
2023-01-13T07:25:25.472Z,10.40
2023-01-13T07:27:52.102Z,10.40
2023-01-13T07:30:19.333Z,10.40
2023-01-13T07:32:46.267Z,10.40
2023-01-13T07:35:12.966Z,10.40
2023-01-13T07:37:39.717Z,10.40
2023-01-13T07:40:07.555Z,10.42
2023-01-13T07:42:53.138Z,10.50
2023-01-13T07:45:19.679Z,10.50
2023-01-13T07:47:46.344Z,10.50
2023-01-13T07:50:12.951Z,10.50
2023-01-13T07:52:39.662Z,10.50
2023-01-13T07:55:06.906Z,10.50
2023-01-13T07:57:33.617Z,10.50
2023-01-13T08:00:00.258Z,10.50
2023-01-13T08:02:27.162Z,10.60
2023-01-13T08:04:53.975Z,10.60
2023-01-13T08:07:20.686Z,10.60
2023-01-13T08:09:47.379Z,10.60
2023-01-13T08:12:32.674Z,10.66
2023-01-13T08:14:59.265Z,10.70
2023-01-13T08:17:26.048Z,10.70
2023-01-13T08:19:52.694Z,10.70
2023-01-13T08:22:19.343Z,10.70
2023-01-13T08:24:45.999Z,10.70
2023-01-13T08:27:12.655Z,10.70
2023-01-13T08:29:39.309Z,10.70
2023-01-13T08:32:06.721Z,10.70
2023-01-13T08:34:33.433Z,10.80
2023-01-13T08:37:00.211Z,10.80
2023-01-13T08:39:27.075Z,10.80
2023-01-13T08:41:56.676Z,10.86
2023-01-13T08:44:26.382Z,10.90
2023-01-13T08:46:54.296Z,10.90
2023-01-13T08:49:22.311Z,10.90
2023-01-13T08:51:50.516Z,10.90
2023-01-13T08:54:18.993Z,11.00
2023-01-13T08:56:47.128Z,11.00
2023-01-13T08:59:16.843Z,11.00
2023-01-13T09:01:48.384Z,11.00
2023-01-13T09:04:21.784Z,11.10
2023-01-13T09:06:50.045Z,11.10
2023-01-13T09:09:17.171Z,11.20
2023-01-13T09:12:07.781Z,11.20
2023-01-13T09:14:37.657Z,11.30
2023-01-13T09:17:04.810Z,11.30
2023-01-13T09:19:31.398Z,11.40
2023-01-13T09:21:58.053Z,11.44
2023-01-13T09:24:25.715Z,11.50
2023-01-13T09:26:53.209Z,11.50
2023-01-13T09:29:20.414Z,11.60
2023-01-13T09:31:47.324Z,11.62
2023-01-13T09:34:38.774Z,11.70
2023-01-13T09:37:07.008Z,11.80
2023-01-13T09:39:35.715Z,11.82
2023-01-13T09:43:03.642Z,11.90
2023-01-13T09:45:32.423Z,12.00
2023-01-13T09:48:30.178Z,12.00
2023-01-13T09:51:21.032Z,12.06
2023-01-13T09:53:58.920Z,12.10
2023-01-13T09:56:26.499Z,12.20
2023-01-13T09:58:53.269Z,12.26
2023-01-13T10:02:00.259Z,12.40
2023-01-13T10:04:27.802Z,12.60
2023-01-13T10:07:03.972Z,12.78
2023-01-13T10:09:43.190Z,13.00
2023-01-13T10:12:38.208Z,13.40
2023-01-13T10:15:05.570Z,13.70
2023-01-13T10:18:01.476Z,13.82
2023-01-13T10:20:36.529Z,14.00
2023-01-13T10:23:34.387Z,14.32
2023-01-13T10:26:24.154Z,14.60
2023-01-13T10:28:55.133Z,14.70
2023-01-13T10:31:23.925Z,15.00
2023-01-13T10:34:06.070Z,15.10
2023-01-13T10:36:32.754Z,15.40
2023-01-13T10:39:15.924Z,15.92
2023-01-13T10:41:44.131Z,16.50
2023-01-13T10:44:19.156Z,17.00
2023-01-13T10:46:58.740Z,17.36
2023-01-13T10:49:33.594Z,17.78
2023-01-13T10:52:02.069Z,17.86
2023-01-13T10:54:30.183Z,17.62
2023-01-13T10:57:24.199Z,17.44
2023-01-13T10:59:53.144Z,17.10
2023-01-13T11:02:30.141Z,17.00
2023-01-13T11:05:06.130Z,16.90
2023-01-13T11:07:45.422Z,16.52
2023-01-13T11:10:24.144Z,16.18
2023-01-13T11:13:15.564Z,15.80
2023-01-13T11:15:55.400Z,15.50
2023-01-13T11:18:37.778Z,15.10
2023-01-13T11:21:14.646Z,14.70
2023-01-13T11:23:50.576Z,14.44
2023-01-13T11:26:26.492Z,14.14
2023-01-13T11:29:21.364Z,14.00
2023-01-13T11:31:56.418Z,13.90
2023-01-13T11:34:52.527Z,13.80
2023-01-13T11:37:31.702Z,13.70
2023-01-13T11:40:33.590Z,13.70
2023-01-13T11:43:14.236Z,13.60
2023-01-13T11:45:58.065Z,13.60
2023-01-13T11:48:30.304Z,13.52
2023-01-13T11:51:15.186Z,13.40
2023-01-13T11:54:25.112Z,13.40
2023-01-13T11:56:54.657Z,13.30
2023-01-13T11:59:40.282Z,13.30
2023-01-13T12:02:49.537Z,13.40
2023-01-13T12:05:41.545Z,13.40
2023-01-13T12:08:27.116Z,13.40
2023-01-13T12:11:00.134Z,13.40
2023-01-13T12:13:57.293Z,13.40
2023-01-13T12:16:30.687Z,13.30
2023-01-13T12:19:15.679Z,13.20
2023-01-13T12:22:04.846Z,13.14
2023-01-13T12:25:07.207Z,13.20
2023-01-13T12:28:17.080Z,13.30
2023-01-13T12:30:56.571Z,13.20
2023-01-13T12:33:55.446Z,13.16
2023-01-13T12:37:04.788Z,13.10
2023-01-13T12:40:02.878Z,13.00
2023-01-13T12:43:06.318Z,12.90
2023-01-13T12:45:33.604Z,12.80
2023-01-13T12:48:00.869Z,12.70
2023-01-13T12:50:27.483Z,12.70
2023-01-13T12:53:29.818Z,12.50
2023-01-13T12:56:44.813Z,12.40
2023-01-13T12:59:19.074Z,12.22
2023-01-13T13:01:49.342Z,12.10
2023-01-13T13:04:22.581Z,11.90
2023-01-13T13:07:17.506Z,11.80
2023-01-13T13:09:52.373Z,11.80
2023-01-13T13:12:49.789Z,11.80
2023-01-13T13:15:29.120Z,11.80
2023-01-13T13:18:18.296Z,11.90
2023-01-13T13:21:04.974Z,11.90
2023-01-13T13:23:37.552Z,11.90
2023-01-13T13:26:20.414Z,11.90
2023-01-13T13:29:01.129Z,11.98
2023-01-13T13:31:53.055Z,12.00
2023-01-13T13:34:50.344Z,12.02
2023-01-13T13:38:07.234Z,12.10
2023-01-13T13:41:01.686Z,12.00
2023-01-13T13:43:50.087Z,12.00
2023-01-13T13:46:46.785Z,12.00
2023-01-13T13:49:21.016Z,11.90
2023-01-13T13:51:51.490Z,11.92
2023-01-13T13:54:21.911Z,11.90
2023-01-13T13:56:50.376Z,11.90
2023-01-13T13:59:24.299Z,11.90
2023-01-13T14:02:02.155Z,11.80
2023-01-13T14:04:36.948Z,11.78
2023-01-13T14:07:18.407Z,11.80
2023-01-13T14:09:49.777Z,11.80
2023-01-13T14:12:24.536Z,11.78
2023-01-13T14:14:52.146Z,11.60
2023-01-13T14:17:23.942Z,11.06
2023-01-13T14:19:55.652Z,10.44
2023-01-13T14:22:22.680Z,9.82
2023-01-13T14:24:57.966Z,9.38
2023-01-13T14:27:30.553Z,8.92
2023-01-13T14:30:00.648Z,8.72
2023-01-13T14:32:36.571Z,8.60
2023-01-13T14:35:07.096Z,8.42
2023-01-13T14:37:42.155Z,8.30
2023-01-13T14:40:35.908Z,8.10
2023-01-13T14:43:09.133Z,8.00
2023-01-13T14:45:35.744Z,8.00
2023-01-13T14:48:09.972Z,8.00
2023-01-13T14:50:36.672Z,8.00
2023-01-13T14:53:05.028Z,8.10
2023-01-13T14:55:41.535Z,8.10
2023-01-13T14:58:28.605Z,8.10
2023-01-13T15:01:30.103Z,8.16
2023-01-13T15:04:26.225Z,8.18
2023-01-13T15:06:56.491Z,8.20
2023-01-13T15:09:28.408Z,8.20
2023-01-13T15:11:56.394Z,8.28
2023-01-13T15:14:34.811Z,8.30
2023-01-13T15:17:03.374Z,8.30
2023-01-13T15:19:29.944Z,8.30
2023-01-13T15:21:56.614Z,8.30
2023-01-13T15:24:23.152Z,8.30
2023-01-13T15:26:49.872Z,8.30
2023-01-13T15:29:24.274Z,8.20
2023-01-13T15:31:51.204Z,8.20
2023-01-13T15:34:17.857Z,8.20
2023-01-13T15:36:44.583Z,8.10
2023-01-13T15:39:13.160Z,8.10
2023-01-13T15:41:58.285Z,8.10
2023-01-13T15:44:43.883Z,8.10
2023-01-13T15:47:10.612Z,8.00
2023-01-13T15:49:44.268Z,8.00
2023-01-13T15:52:23.882Z,7.90
2023-01-13T15:54:52.180Z,7.80
2023-01-13T15:57:34.785Z,7.80
2023-01-13T16:00:06.193Z,7.70
2023-01-13T16:02:33.242Z,7.70
2023-01-13T16:04:59.926Z,7.62
2023-01-13T16:07:26.646Z,7.60
2023-01-13T16:09:53.449Z,7.60
2023-01-13T16:12:20.179Z,7.50
2023-01-13T16:14:46.964Z,7.50
2023-01-13T16:17:20.183Z,7.50
2023-01-13T16:19:47.450Z,7.50
2023-01-13T16:22:16.376Z,7.50
2023-01-13T16:24:44.235Z,7.50
2023-01-13T16:27:15.569Z,7.50
2023-01-13T16:29:43.313Z,7.58
2023-01-13T16:32:09.963Z,7.60
2023-01-13T16:34:36.932Z,7.60
2023-01-13T16:37:03.846Z,7.60
2023-01-13T16:39:31.171Z,7.60
2023-01-13T16:41:58.037Z,7.60
2023-01-13T16:44:24.657Z,7.70
2023-01-13T16:46:51.198Z,7.70
2023-01-13T16:49:18.570Z,7.70
2023-01-13T16:51:45.181Z,7.70
2023-01-13T16:54:12.461Z,7.66
2023-01-13T16:56:39.846Z,7.60
2023-01-13T16:59:11.082Z,7.60
2023-01-13T17:01:41.225Z,7.66
2023-01-13T17:04:16.138Z,7.70
2023-01-13T17:07:12.541Z,7.70
2023-01-13T17:09:39.150Z,7.80
2023-01-13T17:12:06.000Z,7.80
2023-01-13T17:14:32.634Z,7.80
2023-01-13T17:16:59.319Z,7.80
2023-01-13T17:19:26.110Z,7.70
2023-01-13T17:21:53.155Z,7.70
2023-01-13T17:24:20.656Z,7.70
2023-01-13T17:26:50.968Z,7.70
2023-01-13T17:29:25.156Z,7.62
2023-01-13T17:31:52.963Z,7.66
2023-01-13T17:34:21.311Z,7.68
2023-01-13T17:36:48.502Z,7.70
2023-01-13T17:39:21.599Z,7.70
2023-01-13T17:41:48.120Z,7.70
2023-01-13T17:44:17.794Z,7.70
2023-01-13T17:46:45.296Z,7.70
2023-01-13T17:49:19.454Z,7.70
2023-01-13T17:51:50.928Z,7.70
2023-01-13T17:54:17.987Z,7.68
2023-01-13T17:56:44.630Z,7.62
2023-01-13T17:59:13.100Z,7.68
2023-01-13T18:01:40.619Z,7.70
2023-01-13T18:04:09.839Z,7.70
2023-01-13T18:06:36.481Z,7.70
2023-01-13T18:09:03.201Z,7.70
2023-01-13T18:11:29.883Z,7.74
2023-01-13T18:13:57.130Z,7.80
2023-01-13T18:16:26.955Z,7.80
2023-01-13T18:19:18.954Z,7.78
2023-01-13T18:22:06.143Z,7.80
2023-01-13T18:24:52.085Z,7.80
2023-01-13T18:27:28.928Z,7.80
2023-01-13T18:29:59.321Z,7.80
2023-01-13T18:32:32.877Z,7.80
2023-01-13T18:35:09.797Z,7.80
2023-01-13T18:37:40.376Z,7.78
2023-01-13T18:40:10.915Z,7.70
2023-01-13T18:42:54.523Z,7.70
2023-01-13T18:45:30.922Z,7.60
2023-01-13T18:48:01.181Z,7.60
2023-01-13T18:50:28.332Z,7.54
2023-01-13T18:52:56.097Z,7.50
2023-01-13T18:55:23.615Z,7.50
2023-01-13T18:57:51.233Z,7.50
2023-01-13T19:00:21.092Z,7.50
2023-01-13T19:02:50.758Z,7.50
2023-01-13T19:05:17.837Z,7.58
2023-01-13T19:07:50.508Z,7.56
2023-01-13T19:10:18.362Z,7.50
2023-01-13T19:12:45.164Z,7.40
2023-01-13T19:15:12.323Z,7.40
2023-01-13T19:17:39.193Z,7.30
2023-01-13T19:20:06.650Z,7.22
2023-01-13T19:22:35.545Z,7.20
2023-01-13T19:25:03.763Z,7.10
2023-01-13T19:27:31.282Z,7.10
2023-01-13T19:30:00.224Z,7.00
2023-01-13T19:32:28.026Z,7.00
2023-01-13T19:34:59.339Z,6.90
2023-01-13T19:37:34.244Z,6.90
2023-01-13T19:40:01.307Z,6.82
2023-01-13T19:42:46.632Z,6.80
2023-01-13T19:45:28.281Z,6.80
2023-01-13T19:47:57.128Z,6.74
2023-01-13T19:50:24.981Z,6.76
2023-01-13T19:52:51.884Z,6.70
2023-01-13T19:55:20.042Z,6.80
2023-01-13T19:57:47.054Z,6.80
2023-01-13T20:00:18.378Z,6.80
2023-01-13T20:02:49.221Z,6.86
2023-01-13T20:05:21.186Z,6.90
2023-01-13T20:07:49.330Z,6.90
2023-01-13T20:10:17.541Z,6.90
2023-01-13T20:12:44.278Z,6.92
2023-01-13T20:15:11.325Z,7.00
2023-01-13T20:17:38.055Z,7.00
2023-01-13T20:20:05.110Z,7.00
2023-01-13T20:22:31.723Z,7.00
2023-01-13T20:24:58.408Z,7.10
2023-01-13T20:27:25.063Z,7.10
2023-01-13T20:29:51.814Z,7.10
2023-01-13T20:32:18.646Z,7.08
2023-01-13T20:34:45.370Z,7.00
2023-01-13T20:37:11.963Z,6.90
2023-01-13T20:39:41.028Z,6.80
2023-01-13T20:42:27.272Z,6.70
2023-01-13T20:44:53.986Z,6.60
2023-01-13T20:47:20.709Z,6.52
2023-01-13T20:49:47.531Z,6.50
2023-01-13T20:52:14.168Z,6.50
2023-01-13T20:54:41.586Z,6.50
2023-01-13T20:57:10.471Z,6.50
2023-01-13T20:59:38.856Z,6.50
2023-01-13T21:02:12.882Z,6.50
2023-01-13T21:04:40.449Z,6.50
2023-01-13T21:07:07.379Z,6.50
2023-01-13T21:09:34.141Z,6.40
2023-01-13T21:12:19.381Z,6.40
2023-01-13T21:15:04.658Z,6.40
2023-01-13T21:17:50.247Z,6.40
2023-01-13T21:20:16.981Z,6.40
2023-01-13T21:22:48.588Z,6.40
2023-01-13T21:25:17.012Z,6.40
2023-01-13T21:27:46.431Z,6.38
2023-01-13T21:30:15.483Z,6.30
2023-01-13T21:32:44.449Z,6.30
2023-01-13T21:35:13.311Z,6.34
2023-01-13T21:37:42.306Z,6.30
2023-01-13T21:40:12.721Z,6.30
2023-01-13T21:42:58.568Z,6.30
2023-01-13T21:45:44.151Z,6.20
2023-01-13T21:48:10.864Z,6.10
2023-01-13T21:50:38.632Z,6.04
2023-01-13T21:53:05.716Z,6.00
2023-01-13T21:55:33.018Z,5.90
2023-01-13T21:58:12.167Z,5.90
2023-01-13T22:00:43.083Z,5.80
2023-01-13T22:03:12.315Z,5.80
2023-01-13T22:05:39.253Z,5.70
2023-01-13T22:08:07.100Z,5.68
2023-01-13T22:10:34.288Z,5.60
2023-01-13T22:13:22.744Z,5.60
2023-01-13T22:15:49.568Z,5.50
2023-01-13T22:18:18.129Z,5.50
2023-01-13T22:20:45.227Z,5.50
2023-01-13T22:23:11.959Z,5.50
2023-01-13T22:25:38.630Z,5.40
2023-01-13T22:28:06.098Z,5.40
2023-01-13T22:30:33.326Z,5.40
2023-01-13T22:33:00.193Z,5.40
2023-01-13T22:35:27.067Z,5.30
2023-01-13T22:37:53.621Z,5.30
2023-01-13T22:40:20.383Z,5.30
2023-01-13T22:42:46.955Z,5.26
2023-01-13T22:45:14.539Z,5.20
2023-01-13T22:47:41.424Z,5.20
2023-01-13T22:50:09.827Z,5.20
2023-01-13T22:52:36.514Z,5.20
2023-01-13T22:55:04.302Z,5.10
2023-01-13T22:57:46.743Z,5.10
2023-01-13T23:00:15.533Z,5.04
2023-01-13T23:02:42.154Z,5.00
2023-01-13T23:05:09.020Z,5.08
2023-01-13T23:07:36.154Z,5.10
2023-01-13T23:10:04.255Z,5.10
2023-01-13T23:12:30.937Z,5.10
2023-01-13T23:14:57.611Z,5.20
2023-01-13T23:17:24.329Z,5.20
2023-01-13T23:19:50.868Z,5.26
2023-01-13T23:22:17.423Z,5.30
2023-01-13T23:24:43.995Z,5.30
2023-01-13T23:27:10.596Z,5.30
2023-01-13T23:29:37.240Z,5.30
2023-01-13T23:32:04.184Z,5.20
2023-01-13T23:34:30.800Z,5.26
2023-01-13T23:36:57.367Z,5.30
2023-01-13T23:39:24.778Z,5.30
2023-01-13T23:41:51.552Z,5.30
2023-01-13T23:44:18.164Z,5.30
2023-01-13T23:46:44.789Z,5.30
2023-01-13T23:49:11.426Z,5.38
2023-01-13T23:51:38.273Z,5.40
2023-01-13T23:54:05.181Z,5.42
2023-01-13T23:56:31.887Z,5.50
2023-01-13T23:58:58.902Z,5.50
